»·PEaware :: N700CW KSGU-KLAS

N700CW :: KSGU-KLAS

FLIGHT INFORMATION

Flight Status: Arrived
Operator: Privately registered:
United States
More flights under this callsign
Pilot: Gregory S. (29260)
Aircraft: MOONEY M-20 201 202 205 220 ATS MSE
(M20P)
More flights by this aircraft type
Origin: KSGU St George Mun
United States
Destination: KLAS McCarran Intl
United States
More flights between these airports :: More routes between these airports
Route: +PHYLI2 PHYLI LUXOR LUXOR2
File this flight plan on PilotEdge
Remarks:
Altitude:
(Current/Filed)
8,000ft
Speed:
(Current/Filed)
160kts
Departed: 19-May-20 01:13 PM
Arrived: 19-May-20 01:58 PM
Distance/Time
Traveled:
97nm/0:44
Distance/Time
To Go:
Arrived

Flight Plot

Page will automatically refresh every two minutes.


Map Options




Map Legend


Flown Route
Filed Route
Departure Airport
Arrival Airport
Navaid (VOR, NDB)
Fix

Horizontal Profiles

Position Reports

Time Latitude Longitude Heading Altitude Ground
Speed
19-May-20 12:50 37.036913 -113.507092 293 2885ft 0kts
19-May-20 12:51 37.036913 -113.507092 293 2885ft 0kts
19-May-20 12:52 37.036913 -113.507092 293 2885ft 0kts
19-May-20 12:53 37.036913 -113.507092 293 2885ft 0kts
19-May-20 12:54 37.036913 -113.507092 293 2885ft 0kts
19-May-20 12:55 37.036913 -113.507092 293 2885ft 0kts
19-May-20 12:56 37.036913 -113.507092 293 2885ft 0kts
19-May-20 12:57 37.036913 -113.507092 293 2885ft 0kts
19-May-20 12:58 37.036913 -113.507092 293 2885ft 0kts
19-May-20 12:59 37.036913 -113.507092 293 2885ft 0kts
19-May-20 13:00 37.036913 -113.507092 293 2885ft 0kts
19-May-20 13:01 37.036913 -113.507092 293 2885ft 0kts
19-May-20 13:02 37.036913 -113.507092 293 2885ft 0kts
19-May-20 13:04 37.036913 -113.507092 293 2885ft 0kts
19-May-20 13:05 37.036913 -113.507092 293 2885ft 0kts
19-May-20 13:06 37.036913 -113.507092 293 2885ft 0kts
19-May-20 13:07 37.037456 -113.506946 22 2885ft 11kts
19-May-20 13:08 37.041342 -113.505430 22 2885ft 12kts
19-May-20 13:09 37.045519 -113.503262 18 2885ft 18kts
19-May-20 13:10 37.047713 -113.503069 292 2885ft 0kts
19-May-20 13:11 37.047713 -113.503069 292 2885ft 0kts
19-May-20 13:12 37.047749 -113.504255 209 2885ft 11kts
19-May-20 13:13 37.034741 -113.510991 210 3086ft 83kts
19-May-20 13:14 37.016976 -113.530972 241 3907ft 94kts
19-May-20 13:15 37.005413 -113.559005 248 4907ft 88kts
19-May-20 13:16 36.994986 -113.588049 245 5807ft 99kts
19-May-20 13:17 36.989483 -113.623562 259 6623ft 108kts
19-May-20 13:18 36.984861 -113.661376 258 7425ft 111kts
19-May-20 13:19 36.980182 -113.699878 258 8230ft 110kts
19-May-20 13:20 36.975636 -113.737214 257 9022ft 107kts
19-May-20 13:20 36.971970 -113.767249 256 9675ft 104kts
19-May-20 13:22 36.966997 -113.807884 255 10594ft 99kts
19-May-20 13:23 36.962665 -113.843046 255 11233ft 106kts
19-May-20 13:23 36.958837 -113.874190 254 11730ft 110kts
19-May-20 13:24 36.938443 -113.903097 221 12002ft 128kts
19-May-20 13:26 36.903863 -113.940401 220 11999ft 149kts
19-May-20 13:26 36.877248 -113.968888 220 12002ft 155kts
19-May-20 13:27 36.843966 -114.004466 220 12001ft 158kts
19-May-20 13:28 36.810424 -114.040281 220 12001ft 159kts
19-May-20 13:29 36.776760 -114.076194 220 12001ft 159kts
19-May-20 13:30 36.743122 -114.112028 220 12000ft 159kts
19-May-20 13:31 36.709362 -114.147946 220 12000ft 159kts
19-May-20 13:32 36.675720 -114.183696 220 12000ft 159kts
19-May-20 13:33 36.641945 -114.219543 220 12000ft 159kts
19-May-20 13:34 36.608322 -114.255187 220 11999ft 159kts
19-May-20 13:35 36.574550 -114.290947 220 11999ft 159kts
19-May-20 13:36 36.540975 -114.326455 220 11999ft 159kts
19-May-20 13:37 36.507233 -114.362098 220 11998ft 159kts
19-May-20 13:38 36.473610 -114.397573 220 11998ft 158kts
19-May-20 13:39 36.439987 -114.433005 220 11931ft 163kts
19-May-20 13:40 36.403572 -114.471310 220 11430ft 177kts
19-May-20 13:41 36.363110 -114.511117 219 10561ft 192kts
19-May-20 13:42 36.321044 -114.551711 219 10024ft 182kts
19-May-20 13:43 36.282130 -114.590501 220 9643ft 182kts
19-May-20 13:44 36.242573 -114.630427 220 9127ft 185kts
19-May-20 13:45 36.204611 -114.668433 220 9026ft 168kts
19-May-20 13:46 36.168848 -114.704007 220 8825ft 166kts
19-May-20 13:47 36.134173 -114.741009 230 8117ft 162kts
19-May-20 13:48 36.105066 -114.784343 231 7260ft 169kts
19-May-20 13:49 36.076018 -114.830140 258 6242ft 166kts
19-May-20 13:50 36.076438 -114.886028 266 5348ft 156kts
19-May-20 13:51 36.076460 -114.934580 267 4947ft 143kts
19-May-20 13:52 36.076471 -114.985374 268 4050ft 150kts
19-May-20 13:53 36.076462 -115.031105 267 3684ft 107kts
19-May-20 13:54 36.076438 -115.064830 269 3184ft 93kts
19-May-20 13:55 36.076428 -115.096431 269 2696ft 92kts
19-May-20 13:56 36.076396 -115.127846 270 2207ft 78kts
19-May-20 13:57 36.076477 -115.142047 267 2184ft 25kts
19-May-20 13:58 36.077461 -115.146619 338 2184ft 0kts
19-May-20 13:59 36.077758 -115.147347 277 2184ft 18kts
19-May-20 14:00 36.078026 -115.157171 269 2184ft 33kts
19-May-20 14:01 36.078001 -115.168748 269 2184ft 35kts
19-May-20 14:02 36.080989 -115.171694 4 2184ft 0kts

Navigation Log

Ident Type
Flight plan parsing failed, navigation log unavailable